createdAt,value
2023-02-27T00:01:41.563Z,5.40
2023-02-27T00:06:44.314Z,3.00
2023-02-27T00:11:48.459Z,3.80
2023-02-27T00:16:51.270Z,2.00
2023-02-27T00:21:54.048Z,4.40
2023-02-27T00:26:58.519Z,3.80
2023-02-27T00:32:01.382Z,2.40
2023-02-27T00:37:04.317Z,4.00
2023-02-27T00:42:08.499Z,4.00
2023-02-27T00:47:11.354Z,4.80
2023-02-27T00:52:15.639Z,4.20
2023-02-27T00:57:20.273Z,4.00
2023-02-27T01:02:23.254Z,3.20
2023-02-27T01:07:26.190Z,3.60
2023-02-27T01:12:31.014Z,4.20
2023-02-27T01:17:33.822Z,4.80
2023-02-27T01:22:36.606Z,5.00
2023-02-27T01:27:40.827Z,2.00
2023-02-27T01:32:43.873Z,2.00
2023-02-27T01:37:47.344Z,4.60
2023-02-27T01:42:51.736Z,4.80
2023-02-27T01:47:56.431Z,2.00
2023-02-27T01:53:00.901Z,2.40
2023-02-27T01:58:05.376Z,2.00
2023-02-27T02:03:12.711Z,4.00
2023-02-27T02:08:18.479Z,4.40
2023-02-27T02:13:23.653Z,4.00
2023-02-27T02:18:31.400Z,1.80
2023-02-27T02:24:09.654Z,4.00
2023-02-27T02:29:35.857Z,1.60
2023-02-27T02:35:00.914Z,2.40
2023-02-27T02:40:20.178Z,1.40
2023-02-27T02:45:27.677Z,2.80
2023-02-27T02:50:31.269Z,4.20
2023-02-27T02:55:36.388Z,4.00
2023-02-27T03:00:41.749Z,2.40
2023-02-27T03:05:47.962Z,2.00
2023-02-27T03:10:53.708Z,2.00
2023-02-27T03:15:59.129Z,4.00
2023-02-27T03:21:04.296Z,2.80
2023-02-27T03:26:08.520Z,2.00
2023-02-27T03:31:15.395Z,2.00
2023-02-27T03:36:21.621Z,2.40
2023-02-27T03:41:28.913Z,2.80
2023-02-27T03:46:44.319Z,3.20
2023-02-27T03:51:47.250Z,2.00
2023-02-27T03:56:51.949Z,1.20
2023-02-27T04:01:54.920Z,2.00
2023-02-27T04:07:17.397Z,2.00
2023-02-27T04:12:30.186Z,3.20
2023-02-27T04:17:33.115Z,2.00
2023-02-27T04:22:37.341Z,4.40
2023-02-27T04:27:41.968Z,2.40
2023-02-27T04:32:46.709Z,3.20
2023-02-27T04:37:50.822Z,2.80
2023-02-27T04:42:55.909Z,5.00
2023-02-27T04:48:00.130Z,4.00
2023-02-27T04:53:05.726Z,4.00
2023-02-27T04:58:11.566Z,2.40
2023-02-27T05:03:16.033Z,4.40
2023-02-27T05:08:22.028Z,2.80
2023-02-27T05:13:26.837Z,2.80
2023-02-27T05:18:29.631Z,4.00
2023-02-27T05:23:35.681Z,2.00
2023-02-27T05:28:44.689Z,3.60
2023-02-27T05:33:49.792Z,2.00
2023-02-27T05:38:54.219Z,3.60
2023-02-27T05:44:00.353Z,2.00
2023-02-27T05:49:05.032Z,4.00
2023-02-27T05:54:11.145Z,1.80
2023-02-27T05:59:17.264Z,2.00
2023-02-27T06:04:20.685Z,2.00
2023-02-27T06:09:23.513Z,2.40
2023-02-27T06:14:27.625Z,2.00
2023-02-27T06:19:30.447Z,2.20
2023-02-27T06:24:33.256Z,4.00
2023-02-27T06:29:37.438Z,2.00
2023-02-27T06:34:40.191Z,2.80
2023-02-27T06:39:43.051Z,2.80
2023-02-27T06:44:47.225Z,1.80
2023-02-27T06:49:50.136Z,1.80
2023-02-27T06:54:53.053Z,3.20
2023-02-27T06:59:57.291Z,4.40
2023-02-27T07:05:00.223Z,1.80
2023-02-27T07:10:09.203Z,1.00
2023-02-27T07:15:13.655Z,1.00
2023-02-27T07:20:16.601Z,2.80
2023-02-27T07:25:19.513Z,8.00
2023-02-27T07:30:23.818Z,6.20
2023-02-27T07:35:26.689Z,5.20
2023-02-27T07:40:29.597Z,6.40
2023-02-27T07:45:33.792Z,5.20
2023-02-27T07:50:36.577Z,6.40
2023-02-27T07:55:39.466Z,5.80
2023-02-27T08:00:43.586Z,4.80
2023-02-27T08:05:46.486Z,4.00
2023-02-27T08:10:50.483Z,4.00
2023-02-27T08:15:55.134Z,2.40
2023-02-27T08:20:58.046Z,4.20
2023-02-27T08:26:01.086Z,4.00
2023-02-27T08:31:07.000Z,4.00
2023-02-27T08:36:10.015Z,4.00
2023-02-27T08:41:12.928Z,4.00
2023-02-27T08:46:17.042Z,2.80
2023-02-27T08:51:19.831Z,1.80
2023-02-27T08:56:22.641Z,5.00
2023-02-27T09:01:29.775Z,2.40
2023-02-27T09:06:33.107Z,2.80
2023-02-27T09:11:38.437Z,3.20
2023-02-27T09:16:42.949Z,2.00
2023-02-27T09:21:45.934Z,6.40
2023-02-27T09:26:49.219Z,4.00
2023-02-27T09:31:53.694Z,3.60
2023-02-27T09:36:59.766Z,2.20
2023-02-27T09:42:03.609Z,4.00
2023-02-27T09:47:10.874Z,2.00
2023-02-27T09:52:14.219Z,4.40
2023-02-27T09:57:18.960Z,2.00
2023-02-27T10:02:31.262Z,3.60
2023-02-27T10:07:36.394Z,5.00
2023-02-27T10:12:55.852Z,2.40
2023-02-27T10:18:09.957Z,1.20
2023-02-27T10:23:27.212Z,2.00
2023-02-27T10:28:30.276Z,2.80
2023-02-27T10:33:36.001Z,2.00
2023-02-27T10:38:41.542Z,2.00
2023-02-27T10:43:44.523Z,1.00
2023-02-27T10:48:48.686Z,2.00
2023-02-27T10:53:52.870Z,1.00
2023-02-27T10:59:05.964Z,1.00
2023-02-27T11:04:10.178Z,2.00
2023-02-27T11:09:17.513Z,2.00
2023-02-27T11:14:28.847Z,2.00
2023-02-27T11:19:34.733Z,1.60
2023-02-27T11:24:37.688Z,1.40
2023-02-27T11:29:40.534Z,1.00
2023-02-27T11:34:49.360Z,1.00
2023-02-27T11:39:52.856Z,1.00
2023-02-27T11:44:57.446Z,1.00
2023-02-27T11:50:32.588Z,0.80
2023-02-27T11:55:35.345Z,1.00
2023-02-27T12:00:40.589Z,2.00
2023-02-27T12:05:46.764Z,2.40
2023-02-27T12:10:50.973Z,3.60
2023-02-27T12:15:56.615Z,2.00
2023-02-27T12:21:02.481Z,2.00
2023-02-27T12:26:06.855Z,1.00
2023-02-27T12:31:33.352Z,1.80
2023-02-27T12:36:37.494Z,1.00
2023-02-27T12:41:47.636Z,1.40
2023-02-27T12:46:51.678Z,1.00
2023-02-27T12:52:00.927Z,2.80
2023-02-27T12:57:12.277Z,1.20
2023-02-27T13:02:26.653Z,1.60
2023-02-27T13:07:32.482Z,1.00
2023-02-27T13:12:37.408Z,1.00
2023-02-27T13:17:41.351Z,3.60
2023-02-27T13:22:48.974Z,10.00
2023-02-27T13:27:52.983Z,47.75
2023-02-27T13:32:59.615Z,89.25
2023-02-27T13:38:05.395Z,130.75
2023-02-27T13:43:31.245Z,170.25
2023-02-27T13:48:54.848Z,241.00
2023-02-27T13:54:19.481Z,293.25
2023-02-27T13:59:23.693Z,291.50
2023-02-27T14:04:28.290Z,321.25
2023-02-27T14:09:35.000Z,287.50
2023-02-27T14:14:44.377Z,269.75
2023-02-27T14:20:03.439Z,175.00
2023-02-27T14:25:18.482Z,81.33
2023-02-27T14:30:41.656Z,124.50
2023-02-27T14:35:46.712Z,118.50
2023-02-27T14:40:56.702Z,119.00
2023-02-27T14:46:06.591Z,109.75
2023-02-27T14:51:09.408Z,112.50
2023-02-27T14:56:18.829Z,119.25
2023-02-27T15:01:21.640Z,110.00
2023-02-27T15:06:28.015Z,106.00
2023-02-27T15:11:32.565Z,109.50
2023-02-27T15:16:38.292Z,105.25
2023-02-27T15:21:42.324Z,107.25
2023-02-27T15:26:46.700Z,101.00
2023-02-27T15:31:49.729Z,102.50
2023-02-27T15:36:53.613Z,105.50
2023-02-27T15:41:59.406Z,101.00
2023-02-27T15:47:02.252Z,102.00
2023-02-27T15:52:06.689Z,100.75
2023-02-27T15:57:11.092Z,100.00
2023-02-27T16:02:17.443Z,101.75
2023-02-27T16:07:21.568Z,100.50
2023-02-27T16:12:33.156Z,99.25
2023-02-27T16:17:35.969Z,96.00
2023-02-27T16:22:39.293Z,95.75
2023-02-27T16:27:43.449Z,96.00
2023-02-27T16:32:46.611Z,92.00
2023-02-27T16:37:50.240Z,98.50
2023-02-27T16:42:54.635Z,94.00
2023-02-27T16:47:58.139Z,95.00
2023-02-27T16:53:00.873Z,91.25
2023-02-27T16:58:06.326Z,91.75
2023-02-27T17:03:09.156Z,93.25
2023-02-27T17:08:12.773Z,89.00
2023-02-27T17:13:17.344Z,89.75
2023-02-27T17:18:20.271Z,93.50
2023-02-27T17:23:23.093Z,93.00
2023-02-27T17:28:27.314Z,80.00
2023-02-27T17:33:32.042Z,79.67
2023-02-27T17:38:34.952Z,78.00
2023-02-27T17:43:39.721Z,78.67
2023-02-27T17:48:42.568Z,77.33
2023-02-27T17:53:45.328Z,71.33
2023-02-27T17:58:49.644Z,68.67
2023-02-27T18:03:52.644Z,67.33
2023-02-27T18:08:55.507Z,66.67
2023-02-27T18:14:00.532Z,67.00
2023-02-27T18:19:03.905Z,69.33
2023-02-27T18:24:07.042Z,69.33
2023-02-27T18:29:11.942Z,69.00
2023-02-27T18:34:14.672Z,66.67
2023-02-27T18:39:17.457Z,61.33
2023-02-27T18:44:21.881Z,62.50
2023-02-27T18:49:24.868Z,63.67
2023-02-27T18:54:27.652Z,62.00
2023-02-27T18:59:31.799Z,61.50
2023-02-27T19:04:34.615Z,60.00
2023-02-27T19:09:37.557Z,56.50
2023-02-27T19:14:41.963Z,61.50
2023-02-27T19:19:45.047Z,52.00
2023-02-27T19:24:48.199Z,53.75
2023-02-27T19:29:52.589Z,56.25
2023-02-27T19:34:55.473Z,58.50
2023-02-27T19:39:58.316Z,53.50
2023-02-27T19:45:02.570Z,54.25
2023-02-27T19:50:07.003Z,53.50
2023-02-27T19:55:10.256Z,58.75
2023-02-27T20:00:16.513Z,57.25
2023-02-27T20:05:19.409Z,52.50
2023-02-27T20:10:22.365Z,51.00
2023-02-27T20:15:26.488Z,44.00
2023-02-27T20:20:31.728Z,47.50
2023-02-27T20:25:34.730Z,52.50
2023-02-27T20:30:40.019Z,44.75
2023-02-27T20:35:42.875Z,47.00
2023-02-27T20:40:45.834Z,43.50
2023-02-27T20:45:50.064Z,44.00
2023-02-27T20:50:52.860Z,50.00
2023-02-27T20:55:55.599Z,40.25
2023-02-27T21:00:59.770Z,45.50
2023-02-27T21:06:02.574Z,49.50
2023-02-27T21:11:09.361Z,48.50
2023-02-27T21:16:14.782Z,44.50
2023-02-27T21:21:18.650Z,40.00
2023-02-27T21:26:22.585Z,45.00
2023-02-27T21:31:27.782Z,40.00
2023-02-27T21:36:33.397Z,36.25
2023-02-27T21:41:36.252Z,41.75
2023-02-27T21:46:40.367Z,42.00
2023-02-27T21:51:43.374Z,40.40
2023-02-27T21:56:46.838Z,40.00
2023-02-27T22:01:50.922Z,40.75
2023-02-27T22:06:53.793Z,44.50
2023-02-27T22:11:56.685Z,43.25
2023-02-27T22:17:00.932Z,44.50
2023-02-27T22:22:03.659Z,41.60
2023-02-27T22:27:06.397Z,39.50
2023-02-27T22:32:10.553Z,35.75
2023-02-27T22:37:16.024Z,35.75
2023-02-27T22:42:18.878Z,38.25
2023-02-27T22:47:23.034Z,33.60
2023-02-27T22:52:25.760Z,33.60
2023-02-27T22:57:28.517Z,37.50
2023-02-27T23:02:33.976Z,36.60
2023-02-27T23:07:36.922Z,33.40
2023-02-27T23:12:39.681Z,34.00
2023-02-27T23:17:56.560Z,35.40
2023-02-27T23:23:00.530Z,37.60
2023-02-27T23:28:03.387Z,31.80
2023-02-27T23:33:07.647Z,28.80
2023-02-27T23:38:10.432Z,37.20
2023-02-27T23:43:13.283Z,31.20
2023-02-27T23:48:17.468Z,31.80
2023-02-27T23:53:20.613Z,33.60
2023-02-27T23:58:23.427Z,28.20
